createdAt,value
2022-09-10T00:01:59.666Z,0.55
2022-09-10T00:04:27.920Z,0.85
2022-09-10T00:06:55.706Z,0.90
2022-09-10T00:09:22.896Z,0.73
2022-09-10T00:11:50.063Z,0.80
2022-09-10T00:14:20.847Z,0.55
2022-09-10T00:16:48.323Z,0.60
2022-09-10T00:19:15.795Z,0.60
2022-09-10T00:21:44.621Z,0.60
2022-09-10T00:24:11.893Z,0.60
2022-09-10T00:26:40.330Z,0.82
2022-09-10T00:29:10.855Z,0.65
2022-09-10T00:31:37.940Z,0.70
2022-09-10T00:34:06.070Z,0.50
2022-09-10T00:36:42.390Z,0.50
2022-09-10T00:39:12.904Z,0.40
2022-09-10T00:41:41.789Z,0.60
2022-09-10T00:44:42.815Z,0.70
2022-09-10T00:47:33.272Z,0.60
2022-09-10T00:50:15.628Z,0.68
2022-09-10T00:52:43.190Z,0.60
2022-09-10T00:55:12.592Z,0.60
2022-09-10T00:57:39.988Z,0.68
2022-09-10T01:00:10.729Z,0.70
2022-09-10T01:02:37.857Z,0.60
2022-09-10T01:05:06.385Z,0.52
2022-09-10T01:07:33.811Z,0.55
2022-09-10T01:10:06.808Z,0.60
2022-09-10T01:12:36.490Z,0.40
2022-09-10T01:15:35.628Z,0.75
2022-09-10T01:18:32.784Z,0.63
2022-09-10T01:21:11.296Z,0.40
2022-09-10T01:24:19.419Z,0.60
2022-09-10T01:27:06.285Z,0.60
2022-09-10T01:30:14.827Z,0.50
2022-09-10T01:32:44.208Z,0.60
2022-09-10T01:35:10.913Z,0.52
2022-09-10T01:37:40.282Z,0.50
2022-09-10T01:40:08.061Z,0.52
2022-09-10T01:42:39.405Z,0.60
2022-09-10T01:45:06.828Z,0.63
2022-09-10T01:47:48.615Z,0.90
2022-09-10T01:50:52.344Z,0.60
2022-09-10T01:53:30.993Z,0.50
2022-09-10T01:56:09.738Z,0.77
2022-09-10T01:58:40.688Z,0.50
2022-09-10T02:01:22.099Z,0.68
2022-09-10T02:03:52.182Z,0.70
2022-09-10T02:06:22.460Z,0.73
2022-09-10T02:08:53.620Z,0.80
2022-09-10T02:11:21.459Z,0.70
2022-09-10T02:13:48.793Z,0.50
2022-09-10T02:16:22.303Z,0.60
2022-09-10T02:18:49.753Z,0.60
2022-09-10T02:21:17.033Z,0.70
2022-09-10T02:23:49.053Z,0.60
2022-09-10T02:26:16.007Z,0.60
2022-09-10T02:28:43.686Z,0.70
2022-09-10T02:31:10.760Z,0.60
2022-09-10T02:33:37.569Z,0.68
2022-09-10T02:36:04.877Z,0.60
2022-09-10T02:38:31.515Z,0.80
2022-09-10T02:40:59.253Z,0.60
2022-09-10T02:43:27.118Z,0.60
2022-09-10T02:45:57.977Z,0.50
2022-09-10T02:48:26.193Z,0.55
2022-09-10T02:50:53.759Z,0.40
2022-09-10T02:53:21.179Z,0.60
2022-09-10T02:55:48.491Z,0.40
2022-09-10T02:58:16.652Z,0.50
2022-09-10T03:00:45.419Z,0.60
2022-09-10T03:03:12.493Z,0.60
2022-09-10T03:05:39.068Z,1.00
2022-09-10T03:08:06.439Z,0.52
2022-09-10T03:10:33.431Z,0.60
2022-09-10T03:13:00.347Z,0.50
2022-09-10T03:15:28.219Z,0.60
2022-09-10T03:17:55.074Z,0.43
2022-09-10T03:20:25.426Z,0.47
2022-09-10T03:22:51.972Z,0.63
2022-09-10T03:25:19.829Z,0.43
2022-09-10T03:27:46.609Z,0.50
2022-09-10T03:30:13.453Z,0.40
2022-09-10T03:32:40.311Z,0.60
2022-09-10T03:35:07.488Z,0.45
2022-09-10T03:37:34.057Z,0.50
2022-09-10T03:40:00.694Z,0.60
2022-09-10T03:42:27.452Z,0.50
2022-09-10T03:44:56.348Z,0.60
2022-09-10T03:47:27.229Z,0.70
2022-09-10T03:49:53.848Z,0.40
2022-09-10T03:52:22.744Z,0.50
2022-09-10T03:54:51.212Z,0.60
2022-09-10T03:57:17.788Z,0.50
2022-09-10T03:59:46.105Z,0.60
2022-09-10T04:02:12.857Z,0.50
2022-09-10T04:04:39.448Z,0.50
2022-09-10T04:07:06.051Z,0.50
2022-09-10T04:09:36.022Z,0.43
2022-09-10T04:12:03.774Z,0.45
2022-09-10T04:14:30.418Z,0.60
2022-09-10T04:16:58.961Z,0.55
2022-09-10T04:19:27.644Z,0.60
2022-09-10T04:21:54.760Z,1.10
2022-09-10T04:24:21.345Z,0.50
2022-09-10T04:26:47.981Z,0.60
2022-09-10T04:29:14.632Z,0.40
2022-09-10T04:31:42.294Z,0.40
2022-09-10T04:34:08.975Z,0.50
2022-09-10T04:36:35.988Z,0.63
2022-09-10T04:39:02.667Z,0.50
2022-09-10T04:41:29.227Z,0.50
2022-09-10T04:43:55.791Z,0.65
2022-09-10T04:46:23.847Z,0.63
2022-09-10T04:48:50.417Z,0.50
2022-09-10T04:51:18.119Z,0.52
2022-09-10T04:53:45.937Z,0.60
2022-09-10T04:56:12.820Z,0.60
2022-09-10T04:58:40.082Z,0.52
2022-09-10T05:01:07.658Z,0.60
2022-09-10T05:03:34.408Z,0.43
2022-09-10T05:06:05.013Z,0.40
2022-09-10T05:08:32.371Z,0.47
2022-09-10T05:11:02.876Z,0.60
2022-09-10T05:13:31.807Z,0.80
2022-09-10T05:15:59.539Z,0.52
2022-09-10T05:18:26.491Z,0.50
2022-09-10T05:20:53.181Z,0.60
2022-09-10T05:23:20.063Z,0.60
2022-09-10T05:25:47.979Z,0.50
2022-09-10T05:28:16.202Z,0.60
2022-09-10T05:30:49.499Z,0.60
2022-09-10T05:33:18.032Z,0.68
2022-09-10T05:35:44.543Z,0.50
2022-09-10T05:38:12.056Z,0.63
2022-09-10T05:40:38.632Z,0.73
2022-09-10T05:43:05.642Z,0.65
2022-09-10T05:45:32.488Z,0.90
2022-09-10T05:47:59.977Z,0.80
2022-09-10T05:50:26.546Z,0.68
2022-09-10T05:52:53.155Z,0.60
2022-09-10T05:55:19.828Z,0.68
2022-09-10T05:57:46.427Z,0.60
2022-09-10T06:00:13.233Z,0.70
2022-09-10T06:02:39.883Z,0.65
2022-09-10T06:05:06.681Z,0.50
2022-09-10T06:07:33.389Z,0.50
2022-09-10T06:10:03.058Z,0.60
2022-09-10T06:12:29.631Z,0.60
2022-09-10T06:14:56.215Z,0.52
2022-09-10T06:17:23.011Z,0.50
2022-09-10T06:19:51.934Z,0.60
2022-09-10T06:22:18.471Z,0.52
2022-09-10T06:24:47.866Z,0.50
2022-09-10T06:27:14.414Z,0.40
2022-09-10T06:29:40.926Z,0.50
2022-09-10T06:32:07.575Z,0.50
2022-09-10T06:34:35.817Z,0.40
2022-09-10T06:37:04.235Z,0.50
2022-09-10T06:39:30.886Z,0.70
2022-09-10T06:41:57.603Z,0.40
2022-09-10T06:44:24.132Z,0.43
2022-09-10T06:49:39.532Z,0.52
2022-09-10T06:52:06.196Z,0.40
2022-09-10T06:54:32.778Z,0.50
2022-09-10T06:56:59.379Z,0.50
2022-09-10T06:59:26.015Z,0.50
2022-09-10T07:05:32.447Z,0.40
2022-09-10T07:07:59.143Z,0.57
2022-09-10T07:10:27.692Z,0.50
2022-09-10T07:12:54.625Z,0.60
2022-09-10T07:15:21.184Z,0.65
2022-09-10T07:17:47.736Z,0.50
2022-09-10T07:20:15.035Z,0.60
2022-09-10T07:22:43.798Z,0.50
2022-09-10T07:25:10.437Z,0.70
2022-09-10T07:27:40.019Z,0.47
2022-09-10T07:30:07.147Z,0.70
2022-09-10T07:32:33.704Z,0.50
2022-09-10T07:35:00.770Z,0.50
2022-09-10T07:37:27.331Z,0.60
2022-09-10T07:39:54.016Z,0.60
2022-09-10T07:42:21.159Z,0.70
2022-09-10T07:44:47.857Z,0.50
2022-09-10T07:47:14.426Z,0.60
2022-09-10T07:49:41.002Z,0.80
2022-09-10T07:52:07.580Z,0.60
2022-09-10T07:54:34.182Z,0.60
2022-09-10T07:57:00.737Z,0.45
2022-09-10T07:59:27.278Z,0.70
2022-09-10T08:01:53.891Z,0.55
2022-09-10T08:04:20.583Z,0.70
2022-09-10T08:06:47.134Z,0.70
2022-09-10T08:09:14.900Z,0.60
2022-09-10T08:11:41.655Z,0.52
2022-09-10T08:14:08.182Z,0.60
2022-09-10T08:16:36.249Z,0.60
2022-09-10T08:19:02.872Z,0.63
2022-09-10T08:21:30.255Z,0.60
2022-09-10T08:23:57.518Z,0.60
2022-09-10T08:26:25.896Z,1.00
2022-09-10T08:28:57.845Z,0.60
2022-09-10T08:31:26.616Z,0.60
2022-09-10T08:33:55.023Z,0.50
2022-09-10T08:36:22.050Z,0.52
2022-09-10T08:38:50.418Z,0.90
2022-09-10T08:41:38.531Z,0.70
2022-09-10T08:44:36.706Z,0.50
2022-09-10T08:47:13.026Z,0.65
2022-09-10T08:49:45.983Z,0.52
2022-09-10T08:52:15.838Z,0.60
2022-09-10T08:55:10.097Z,0.60
2022-09-10T09:00:04.904Z,0.43
2022-09-10T09:02:47.680Z,0.50
2022-09-10T09:05:23.640Z,0.70
2022-09-10T09:07:54.016Z,0.57
2022-09-10T09:10:26.467Z,0.55
2022-09-10T09:13:11.700Z,0.68
2022-09-10T09:15:51.795Z,0.50
2022-09-10T09:18:41.864Z,0.50
2022-09-10T09:21:16.931Z,0.60
2022-09-10T09:24:13.539Z,0.60
2022-09-10T09:26:46.036Z,0.60
2022-09-10T09:29:19.059Z,0.50
2022-09-10T09:31:52.139Z,0.50
2022-09-10T09:34:41.820Z,0.50
2022-09-10T09:37:19.061Z,0.40
2022-09-10T09:39:53.610Z,0.77
2022-09-10T09:42:38.261Z,0.65
2022-09-10T09:45:49.982Z,0.60
2022-09-10T09:48:19.267Z,0.65
2022-09-10T09:50:49.167Z,0.57
2022-09-10T09:53:22.825Z,0.50
2022-09-10T09:58:26.865Z,0.60
2022-09-10T10:00:54.743Z,0.60
2022-09-10T10:03:31.122Z,0.73
2022-09-10T10:06:08.941Z,0.45
2022-09-10T10:08:42.572Z,0.60
2022-09-10T10:13:41.586Z,0.50
2022-09-10T10:16:14.416Z,0.50
2022-09-10T10:18:43.002Z,0.60
2022-09-10T10:21:16.964Z,0.90
2022-09-10T10:23:44.319Z,0.68
2022-09-10T10:26:23.093Z,0.80
2022-09-10T10:28:58.635Z,0.60
2022-09-10T10:31:37.758Z,0.80
2022-09-10T10:34:10.410Z,0.70
2022-09-10T10:36:56.252Z,0.68
2022-09-10T10:39:40.644Z,0.47
2022-09-10T10:42:21.435Z,0.90
2022-09-10T10:45:21.488Z,0.70
2022-09-10T10:47:54.830Z,0.60
2022-09-10T10:50:30.409Z,0.80
2022-09-10T10:53:23.993Z,1.00
2022-09-10T10:56:00.107Z,0.90
2022-09-10T10:58:59.679Z,0.80
2022-09-10T11:01:30.196Z,0.80
2022-09-10T11:04:23.143Z,1.00
2022-09-10T11:07:00.946Z,1.20
2022-09-10T11:09:39.156Z,0.70
2022-09-10T11:12:11.439Z,0.80
2022-09-10T11:14:48.694Z,0.82
2022-09-10T11:17:20.991Z,0.77
2022-09-10T11:20:17.669Z,1.27
2022-09-10T11:22:58.144Z,0.60
2022-09-10T11:25:27.949Z,0.60
2022-09-10T11:28:17.803Z,0.60
2022-09-10T11:30:49.505Z,0.73
2022-09-10T11:33:29.176Z,0.65
2022-09-10T11:36:16.595Z,0.50
2022-09-10T11:38:53.659Z,0.70
2022-09-10T11:41:25.056Z,0.70
2022-09-10T11:44:15.631Z,0.70
2022-09-10T11:47:00.970Z,0.50
2022-09-10T11:49:48.618Z,0.60
2022-09-10T11:52:17.547Z,0.40
2022-09-10T11:54:46.763Z,0.60
2022-09-10T11:57:25.386Z,0.70
2022-09-10T12:00:07.108Z,0.70
2022-09-10T12:03:11.403Z,0.80
2022-09-10T12:05:44.471Z,0.75
2022-09-10T12:08:29.610Z,0.60
2022-09-10T12:11:15.102Z,0.50
2022-09-10T12:13:44.624Z,0.70
2022-09-10T12:16:19.975Z,0.70
2022-09-10T12:18:53.030Z,0.63
2022-09-10T12:21:25.877Z,0.60
2022-09-10T12:23:52.957Z,0.60
2022-09-10T12:26:20.655Z,0.60
2022-09-10T12:28:53.330Z,0.50
2022-09-10T12:31:21.790Z,0.60
2022-09-10T12:34:39.898Z,0.63
2022-09-10T12:37:07.741Z,0.40
2022-09-10T12:39:34.721Z,0.40
2022-09-10T12:42:03.296Z,0.52
2022-09-10T12:44:36.254Z,0.60
2022-09-10T12:47:17.992Z,0.47
2022-09-10T12:49:53.302Z,0.40
2022-09-10T12:52:57.070Z,0.40
2022-09-10T12:55:59.686Z,0.40
2022-09-10T12:58:35.140Z,0.50
2022-09-10T13:01:36.652Z,0.40
2022-09-10T13:04:03.625Z,0.40
2022-09-10T13:06:40.262Z,0.50
2022-09-10T13:09:19.980Z,0.40
2022-09-10T13:11:50.173Z,0.40
2022-09-10T13:14:22.284Z,0.20
2022-09-10T13:16:49.331Z,0.38
2022-09-10T13:19:19.482Z,0.20
2022-09-10T13:21:48.083Z,0.30
2022-09-10T13:24:34.300Z,0.50
2022-09-10T13:30:49.366Z,0.60
2022-09-10T13:33:22.115Z,0.60
2022-09-10T13:35:55.854Z,0.52
2022-09-10T13:38:49.909Z,0.70
2022-09-10T13:41:35.502Z,0.60
2022-09-10T13:44:31.165Z,0.57
2022-09-10T13:47:03.257Z,0.50
2022-09-10T13:49:47.512Z,0.50
2022-09-10T13:52:17.368Z,0.40
2022-09-10T13:54:51.753Z,0.40
2022-09-10T13:57:24.656Z,0.30
2022-09-10T13:59:57.665Z,0.50
2022-09-10T14:02:50.747Z,0.40
2022-09-10T14:05:33.995Z,0.50
2022-09-10T14:08:06.460Z,0.40
2022-09-10T14:10:38.866Z,0.50
2022-09-10T14:13:05.801Z,0.70
2022-09-10T14:15:39.283Z,0.30
2022-09-10T14:20:35.604Z,0.40
2022-09-10T14:23:12.526Z,0.60
2022-09-10T14:25:41.063Z,0.50
2022-09-10T14:28:16.592Z,0.43
2022-09-10T14:30:44.871Z,0.40
2022-09-10T14:33:28.393Z,0.40
2022-09-10T14:35:58.011Z,0.40
2022-09-10T14:38:30.514Z,0.60
2022-09-10T14:41:04.391Z,1.25
2022-09-10T14:43:35.836Z,0.50
2022-09-10T14:46:03.709Z,0.30
2022-09-10T14:48:37.123Z,0.40
2022-09-10T14:51:10.732Z,0.40
2022-09-10T14:56:08.662Z,0.40
2022-09-10T14:58:35.477Z,0.30
2022-09-10T15:01:02.719Z,0.40
2022-09-10T15:03:38.259Z,0.40
2022-09-10T15:06:05.100Z,0.32
2022-09-10T15:08:31.784Z,0.30
2022-09-10T15:11:00.166Z,0.43
2022-09-10T15:13:26.812Z,0.73
2022-09-10T15:15:53.999Z,0.60
2022-09-10T15:18:22.719Z,0.38
2022-09-10T15:20:50.293Z,1.42
2022-09-10T15:23:18.272Z,0.70
2022-09-10T15:25:50.639Z,0.30
2022-09-10T15:28:17.202Z,0.55
2022-09-10T15:30:44.042Z,0.70
2022-09-10T15:33:13.211Z,0.47
2022-09-10T15:35:42.659Z,0.32
2022-09-10T15:38:12.932Z,0.35
2022-09-10T15:40:39.509Z,0.43
2022-09-10T15:43:09.096Z,0.40
2022-09-10T15:46:21.965Z,0.32
2022-09-10T15:48:49.887Z,0.40
2022-09-10T15:51:23.084Z,0.50
2022-09-10T15:53:54.251Z,0.45
2022-09-10T15:56:21.860Z,0.30
2022-09-10T15:58:55.184Z,0.52
2022-09-10T16:01:24.209Z,0.40
2022-09-10T16:03:58.056Z,0.50
2022-09-10T16:06:31.219Z,0.52
2022-09-10T16:09:03.395Z,0.70
2022-09-10T16:11:32.262Z,0.50
2022-09-10T16:14:04.294Z,0.60
2022-09-10T16:16:31.438Z,0.50
2022-09-10T16:18:58.159Z,0.50
2022-09-10T16:21:27.329Z,0.57
2022-09-10T16:23:56.384Z,0.80
2022-09-10T16:29:47.099Z,0.60
2022-09-10T16:32:13.728Z,0.85
2022-09-10T16:34:40.437Z,0.90
2022-09-10T16:37:07.146Z,0.68
2022-09-10T16:39:33.701Z,0.70
2022-09-10T16:42:00.319Z,0.80
2022-09-10T16:44:28.477Z,0.77
2022-09-10T16:46:57.681Z,0.75
2022-09-10T16:49:24.278Z,0.95
2022-09-10T16:51:50.917Z,0.65
2022-09-10T16:54:21.408Z,1.00
2022-09-10T16:56:50.221Z,0.80
2022-09-10T16:59:22.571Z,0.75
2022-09-10T17:01:51.769Z,0.70
2022-09-10T17:04:24.849Z,0.70
2022-09-10T17:06:55.370Z,0.98
2022-09-10T17:09:22.683Z,1.13
2022-09-10T17:11:49.279Z,0.63
2022-09-10T17:14:15.846Z,0.80
2022-09-10T17:16:43.493Z,0.70
2022-09-10T17:19:11.254Z,0.77
2022-09-10T17:21:39.946Z,0.80
2022-09-10T17:24:09.000Z,0.60
2022-09-10T17:26:37.279Z,0.50
2022-09-10T17:29:07.014Z,0.40
2022-09-10T17:31:35.058Z,0.70
2022-09-10T17:34:02.243Z,1.00
2022-09-10T17:36:28.857Z,0.80
2022-09-10T17:38:56.229Z,0.60
2022-09-10T17:41:23.841Z,0.50
2022-09-10T17:43:51.206Z,0.63
2022-09-10T17:46:20.353Z,0.60
2022-09-10T17:48:48.301Z,0.60
2022-09-10T17:51:17.788Z,0.50
2022-09-10T17:53:44.828Z,0.55
2022-09-10T17:56:14.510Z,0.60
2022-09-10T17:58:41.760Z,0.50
2022-09-10T18:01:12.746Z,0.60
2022-09-10T18:03:40.531Z,0.50
2022-09-10T18:06:09.301Z,0.60
2022-09-10T18:08:36.755Z,1.00
2022-09-10T18:11:09.358Z,0.50
2022-09-10T18:13:37.413Z,0.70
2022-09-10T18:16:09.384Z,0.70
2022-09-10T18:18:37.580Z,0.70
2022-09-10T18:21:31.783Z,0.75
2022-09-10T18:26:37.414Z,0.60
2022-09-10T18:29:07.899Z,0.60
2022-09-10T18:31:37.417Z,0.50
2022-09-10T18:34:05.954Z,0.70
2022-09-10T18:36:57.519Z,0.63
2022-09-10T18:39:26.126Z,0.80
2022-09-10T18:41:53.305Z,0.77
2022-09-10T18:44:23.107Z,0.98
2022-09-10T18:46:51.421Z,0.73
2022-09-10T18:49:21.419Z,0.65
2022-09-10T18:51:51.012Z,0.68
2022-09-10T18:54:18.614Z,0.80
2022-09-10T18:56:47.344Z,0.88
2022-09-10T18:59:16.388Z,0.77
2022-09-10T19:01:45.560Z,0.70
2022-09-10T19:04:15.511Z,0.90
2022-09-10T19:06:44.801Z,0.85
2022-09-10T19:09:14.264Z,1.10
2022-09-10T19:11:43.789Z,0.98
2022-09-10T19:14:30.945Z,1.85
2022-09-10T19:16:59.514Z,1.23
2022-09-10T19:19:36.324Z,1.48
2022-09-10T19:22:07.315Z,2.22
2022-09-10T19:27:21.408Z,2.25
2022-09-10T19:29:49.947Z,1.95
2022-09-10T19:32:17.193Z,1.30
2022-09-10T19:34:44.385Z,1.30
2022-09-10T19:37:11.376Z,1.10
2022-09-10T19:39:38.269Z,1.00
2022-09-10T19:42:05.757Z,1.10
2022-09-10T19:44:33.714Z,0.90
2022-09-10T19:47:00.440Z,0.90
2022-09-10T19:49:27.017Z,1.00
2022-09-10T19:51:54.098Z,0.73
2022-09-10T19:54:22.764Z,0.90
2022-09-10T19:56:49.813Z,0.90
2022-09-10T19:59:16.979Z,0.85
2022-09-10T20:01:46.269Z,1.10
2022-09-10T20:04:14.274Z,1.10
2022-09-10T20:06:42.842Z,1.00
2022-09-10T20:09:12.763Z,1.20
2022-09-10T20:11:39.355Z,1.05
2022-09-10T20:14:14.218Z,1.00
2022-09-10T20:16:43.307Z,1.40
2022-09-10T20:19:13.254Z,1.00
2022-09-10T20:21:39.908Z,0.80
2022-09-10T20:24:07.792Z,1.00
2022-09-10T20:26:37.919Z,1.10
2022-09-10T20:29:07.573Z,1.10
2022-09-10T20:31:35.979Z,1.02
2022-09-10T20:34:07.814Z,1.00
2022-09-10T20:36:37.994Z,1.10
2022-09-10T20:39:06.438Z,0.93
2022-09-10T20:41:33.131Z,0.80
2022-09-10T20:44:01.405Z,0.95
2022-09-10T20:46:30.317Z,0.90
2022-09-10T20:49:04.803Z,1.00
2022-09-10T20:51:38.756Z,1.20
2022-09-10T20:54:07.509Z,0.93
2022-09-10T20:56:34.562Z,0.80
2022-09-10T20:59:01.996Z,1.10
2022-09-10T21:01:31.240Z,0.90
2022-09-10T21:03:59.523Z,0.80
2022-09-10T21:06:29.186Z,1.00
2022-09-10T21:08:56.090Z,1.00
2022-09-10T21:11:24.162Z,0.90
2022-09-10T21:17:38.190Z,0.95
2022-09-10T21:20:06.133Z,1.00
2022-09-10T21:22:32.690Z,1.00
2022-09-10T21:24:59.220Z,0.90
2022-09-10T21:27:25.785Z,0.88
2022-09-10T21:29:52.322Z,0.80
2022-09-10T21:32:18.875Z,0.80
2022-09-10T21:34:45.455Z,0.82
2022-09-10T21:37:12.550Z,1.23
2022-09-10T21:39:39.191Z,0.88
2022-09-10T21:42:06.165Z,0.90
2022-09-10T21:44:32.690Z,0.90
2022-09-10T21:47:00.129Z,0.60
2022-09-10T21:49:26.655Z,0.82
2022-09-10T21:51:53.303Z,0.70
2022-09-10T21:54:54.130Z,0.80
2022-09-10T21:57:20.788Z,0.80
2022-09-10T21:59:47.311Z,0.70
2022-09-10T22:02:13.955Z,0.73
2022-09-10T22:04:40.646Z,0.82
2022-09-10T22:07:07.196Z,0.90
2022-09-10T22:09:33.811Z,0.70
2022-09-10T22:12:00.405Z,0.70
2022-09-10T22:14:27.183Z,0.90
2022-09-10T22:16:54.272Z,0.70
2022-09-10T22:19:23.704Z,0.98
2022-09-10T22:21:51.949Z,0.80
2022-09-10T22:24:19.091Z,1.00
2022-09-10T22:26:48.669Z,0.65
2022-09-10T22:29:17.951Z,0.73
2022-09-10T22:31:45.087Z,0.70
2022-09-10T22:34:14.179Z,0.70
2022-09-10T22:36:43.882Z,0.73
2022-09-10T22:39:13.426Z,0.77
2022-09-10T22:41:40.791Z,0.63
2022-09-10T22:44:08.134Z,0.80
2022-09-10T22:46:36.515Z,1.67
2022-09-10T22:49:04.153Z,0.80
2022-09-10T22:51:35.179Z,1.02
2022-09-10T22:54:03.296Z,1.02
2022-09-10T22:56:29.966Z,0.70
2022-09-10T22:58:58.622Z,0.80
2022-09-10T23:01:31.124Z,0.90
2022-09-10T23:03:59.631Z,1.02
2022-09-10T23:06:28.911Z,0.98
2022-09-10T23:08:58.107Z,0.90
2022-09-10T23:11:27.509Z,0.90
2022-09-10T23:14:01.482Z,1.00
2022-09-10T23:16:33.432Z,0.70
2022-09-10T23:19:03.861Z,1.08
2022-09-10T23:21:32.596Z,1.08
2022-09-10T23:24:02.502Z,0.75
2022-09-10T23:26:29.470Z,1.10
2022-09-10T23:28:57.532Z,0.95
2022-09-10T23:31:29.324Z,0.80
2022-09-10T23:34:01.656Z,1.10
2022-09-10T23:36:31.474Z,0.98
2022-09-10T23:39:03.217Z,0.80
2022-09-10T23:41:32.881Z,1.00
2022-09-10T23:43:59.481Z,1.20
2022-09-10T23:46:26.309Z,0.90
2022-09-10T23:48:53.145Z,1.30
2022-09-10T23:51:20.957Z,0.90
2022-09-10T23:53:48.217Z,0.95
2022-09-10T23:56:20.323Z,0.90
2022-09-10T23:58:47.756Z,0.80
